Time;durP1;ratioP1;P1;durP2;ratioP2;P2;SDS_P1;SDS_P2;PMS_P1;PMS_P2;Temp;Humidity;BMP_temperature;BMP_pressure;BME280_temperature;BME280_humidity;BME280_pressure;Samples;Min_cycle;Max_cycle;Signal;HPM_P1;HPM_P2
2021/12/14 00:02:10;;;;;;;6.57;3.55;;;;;;;;;;5047382;28;20025;-78
2021/12/14 00:04:37;;;;;;;3.80;2.50;;;;;;;;;;5048980;28;20060;-77
2021/12/14 00:07:09;;;;;;;5.03;2.50;;;;;;;;;;5050171;28;20074;-78
2021/12/14 00:09:36;;;;;;;3.47;2.20;;;;;;;;;;5052915;28;20124;-76
2021/12/14 00:17:33;;;;;;;5.45;3.22;;;;;;;;;;5049805;28;20037;-78
2021/12/14 00:20:00;;;;;;;4.65;2.88;;;;;;;;;;5048448;28;20035;-76
2021/12/14 00:24:06;;;;;;;4.30;2.90;;;;;;;;;;5050821;28;20032;-78
2021/12/14 00:25:26;;;;;;;5.63;3.28;;;;;;;;;;5051946;28;20032;-78
2021/12/14 00:27:51;;;;;;;5.55;3.30;;;;;;;;;;5047928;28;20086;-78
2021/12/14 00:30:17;;;;;;;6.82;3.78;;;;;;;;;;5048800;28;20099;-79
2021/12/14 00:32:43;;;;;;;4.57;2.83;;;;;;;;;;5051586;28;20032;-78
2021/12/14 00:35:12;;;;;;;4.78;3.13;;;;;;;;;;5073351;28;20116;-78
2021/12/14 00:37:43;;;;;;;4.95;2.80;;;;;;;;;;5046163;28;20480;-78
2021/12/14 00:40:19;;;;;;;5.57;3.33;;;;;;;;;;5064152;28;20178;-78
2021/12/14 00:42:45;;;;;;;4.18;2.90;;;;;;;;;;5049639;28;20051;-77
2021/12/14 00:45:11;;;;;;;5.38;3.00;;;;;;;;;;5046948;28;20067;-76
2021/12/14 00:47:38;;;;;;;5.18;2.90;;;;;;;;;;5050267;28;20652;-77
2021/12/14 00:50:05;;;;;;;3.95;2.60;;;;;;;;;;5050924;28;20112;-77
2021/12/14 00:52:33;;;;;;;5.32;2.92;;;;;;;;;;5054202;28;20035;-77
2021/12/14 00:55:03;;;;;;;6.03;3.22;;;;;;;;;;5054741;28;20035;-76
2021/12/14 00:57:29;;;;;;;6.15;3.03;;;;;;;;;;5053811;28;20035;-76
2021/12/14 00:59:55;;;;;;;5.40;2.70;;;;;;;;;;5072136;28;20557;-76
2021/12/14 01:02:24;;;;;;;6.72;3.03;;;;;;;;;;5058455;28;20157;-76
2021/12/14 01:04:55;;;;;;;6.68;3.33;;;;;;;;;;5046474;28;20029;-78
2021/12/14 01:07:24;;;;;;;6.80;2.92;;;;;;;;;;5048793;28;20029;-77
2021/12/14 01:09:56;;;;;;;5.43;3.05;;;;;;;;;;5051702;28;20448;-76
2021/12/14 01:12:43;;;;;;;6.18;3.17;;;;;;;;;;5049760;28;20024;-79
2021/12/14 01:18:14;;;;;;;7.00;3.10;;;;;;;;;;5050014;28;20446;-77
2021/12/14 01:20:40;;;;;;;8.98;5.28;;;;;;;;;;5051003;28;20504;-77
2021/12/14 01:23:15;;;;;;;7.65;4.28;;;;;;;;;;5049610;28;20044;-79
2021/12/14 01:25:43;;;;;;;6.25;3.28;;;;;;;;;;5050035;28;20043;-76
2021/12/14 01:28:16;;;;;;;5.30;3.60;;;;;;;;;;5044735;28;20439;-76
2021/12/14 01:31:23;;;;;;;6.00;3.78;;;;;;;;;;5048956;28;20029;-77
2021/12/14 01:33:46;;;;;;;6.78;3.42;;;;;;;;;;5049441;28;20493;-77
2021/12/14 01:36:25;;;;;;;6.97;4.05;;;;;;;;;;5068853;28;20138;-78
2021/12/14 01:41:41;;;;;;;9.65;4.72;;;;;;;;;;5052155;28;20047;-77
2021/12/14 01:44:08;;;;;;;11.65;4.80;;;;;;;;;;5076335;28;20039;-77
2021/12/14 01:46:44;;;;;;;13.00;4.65;;;;;;;;;;5052103;28;20032;-77
2021/12/14 01:49:17;;;;;;;11.93;4.65;;;;;;;;;;5044950;28;20056;-77
2021/12/14 01:51:47;;;;;;;10.18;4.32;;;;;;;;;;5052223;28;20024;-77
2021/12/14 01:54:14;;;;;;;;;;;;;;;;;;5050249;28;20389;-77
2021/12/14 01:56:40;;;;;;;10.75;4.20;;;;;;;;;;5052607;28;19999;-77
2021/12/14 01:59:15;;;;;;;11.98;4.30;;;;;;;;;;5047971;28;20159;-76
2021/12/14 02:02:08;;;;;;;13.40;5.18;;;;;;;;;;5051806;28;20029;-76
2021/12/14 02:04:41;;;;;;;12.27;4.75;;;;;;;;;;5050324;28;20043;-76
2021/12/14 02:07:08;;;;;;;14.38;4.85;;;;;;;;;;5067351;28;20437;-77
2021/12/14 02:09:35;;;;;;;11.05;4.53;;;;;;;;;;5052010;28;20033;-77
2021/12/14 02:12:18;;;;;;;16.27;4.70;;;;;;;;;;5063313;28;20468;-76
2021/12/14 02:14:45;;;;;;;11.68;4.45;;;;;;;;;;5051477;28;20037;-76
2021/12/14 02:17:13;;;;;;;11.57;4.80;;;;;;;;;;5047952;28;20127;-77
2021/12/14 02:19:39;;;;;;;10.07;4.38;;;;;;;;;;5051041;28;20483;-77
2021/12/14 02:22:07;;;;;;;13.68;4.28;;;;;;;;;;5050939;28;20037;-77
2021/12/14 02:24:34;;;;;;;10.95;4.05;;;;;;;;;;5052122;28;20025;-77
2021/12/14 02:27:00;;;;;;;12.70;4.38;;;;;;;;;;5052198;28;20035;-76
2021/12/14 02:29:30;;;;;;;12.63;4.38;;;;;;;;;;5048118;28;20029;-76
2021/12/14 02:32:12;;;;;;;10.05;4.38;;;;;;;;;;5053048;28;20036;-76
2021/12/14 02:34:47;;;;;;;11.32;4.43;;;;;;;;;;5052433;28;20048;-76
2021/12/14 02:37:13;;;;;;;10.50;4.13;;;;;;;;;;5050487;28;20357;-77
2021/12/14 02:42:06;;;;;;;8.32;3.20;;;;;;;;;;5050213;28;20033;-77
2021/12/14 02:44:32;;;;;;;10.18;3.70;;;;;;;;;;5053537;28;20028;-76
2021/12/14 02:47:13;;;;;;;8.75;3.60;;;;;;;;;;5048752;28;20507;-75
2021/12/14 02:49:42;;;;;;;12.75;4.40;;;;;;;;;;5048565;28;20032;-76
2021/12/14 02:52:14;;;;;;;12.90;3.97;;;;;;;;;;5045445;28;20033;-75
2021/12/14 02:54:45;;;;;;;15.35;5.55;;;;;;;;;;5046790;28;20025;-75
2021/12/14 02:57:16;;;;;;;14.27;5.93;;;;;;;;;;5048308;28;20025;-77
2021/12/14 02:59:44;;;;;;;14.93;4.82;;;;;;;;;;5046686;28;20673;-76
2021/12/14 03:02:17;;;;;;;11.98;4.55;;;;;;;;;;5047995;28;20097;-77
2021/12/14 03:04:52;;;;;;;15.30;4.50;;;;;;;;;;5047631;28;20029;-77
2021/12/14 03:07:22;;;;;;;15.38;4.30;;;;;;;;;;5048111;28;20099;-76
2021/12/14 03:12:20;;;;;;;10.48;3.67;;;;;;;;;;5046052;28;20029;-76
2021/12/14 03:15:18;;;;;;;9.75;3.03;;;;;;;;;;5044192;28;20230;-77
2021/12/14 03:17:46;;;;;;;9.60;3.38;;;;;;;;;;5048905;28;20052;-76
2021/12/14 03:20:41;;;;;;;12.20;3.58;;;;;;;;;;5046955;28;20024;-77
2021/12/14 03:23:08;;;;;;;8.50;3.67;;;;;;;;;;5051479;28;20033;-77
2021/12/14 03:25:38;;;;;;;7.55;3.15;;;;;;;;;;5046065;28;20102;-78
2021/12/14 03:28:04;;;;;;;10.95;3.85;;;;;;;;;;5044907;28;20123;-78
2021/12/14 03:30:36;;;;;;;14.43;4.03;;;;;;;;;;5048947;28;20105;-77
2021/12/14 03:33:17;;;;;;;11.93;4.82;;;;;;;;;;5050355;28;20115;-78
2021/12/14 03:35:51;;;;;;;25.50;4.32;;;;;;;;;;5053794;28;20051;-77
2021/12/14 03:38:33;;;;;;;11.98;3.80;;;;;;;;;;5048840;28;20039;-78
2021/12/14 03:41:10;;;;;;;11.63;4.43;;;;;;;;;;5049842;28;20122;-77
2021/12/14 03:43:37;;;;;;;8.32;3.25;;;;;;;;;;5049189;28;20467;-78
2021/12/14 03:46:05;;;;;;;9.45;3.15;;;;;;;;;;5048950;28;20029;-77
2021/12/14 03:48:31;;;;;;;7.55;3.10;;;;;;;;;;5047683;28;20033;-77
2021/12/14 03:50:57;;;;;;;8.32;3.30;;;;;;;;;;5047620;28;20032;-77
2021/12/14 03:53:24;;;;;;;8.05;3.20;;;;;;;;;;5049540;28;20024;-77
2021/12/14 03:55:57;;;;;;;9.75;3.38;;;;;;;;;;5048135;28;20029;-77
2021/12/14 03:58:30;;;;;;;6.97;2.67;;;;;;;;;;5046413;28;20049;-77
2021/12/14 04:01:13;;;;;;;8.75;2.58;;;;;;;;;;5049736;28;20095;-77
2021/12/14 04:03:43;;;;;;;6.57;2.65;;;;;;;;;;5048462;28;20059;-76
2021/12/14 04:06:09;;;;;;;8.85;3.00;;;;;;;;;;5084172;28;20036;-75
2021/12/14 04:08:35;;;;;;;14.48;2.60;;;;;;;;;;5054599;28;20045;-78
2021/12/14 04:11:03;;;;;;;5.65;2.13;;;;;;;;;;5047806;28;20029;-78
2021/12/14 04:13:33;;;;;;;6.20;2.35;;;;;;;;;;5047897;28;20132;-78
2021/12/14 04:16:02;;;;;;;5.40;2.10;;;;;;;;;;5049333;28;20020;-78
2021/12/14 04:18:28;;;;;;;6.53;2.03;;;;;;;;;;5040600;28;20119;-77
2021/12/14 04:20:55;;;;;;;3.85;1.70;;;;;;;;;;5041181;28;20271;-77
2021/12/14 04:23:27;;;;;;;3.60;1.45;;;;;;;;;;5043271;28;20125;-78
2021/12/14 04:25:55;;;;;;;5.80;1.85;;;;;;;;;;5046711;28;20025;-77
2021/12/14 04:28:25;;;;;;;4.55;2.05;;;;;;;;;;5047228;28;20102;-77
2021/12/14 04:30:54;;;;;;;5.28;2.00;;;;;;;;;;5045936;28;20399;-78
2021/12/14 04:33:26;;;;;;;4.25;2.03;;;;;;;;;;5048487;28;20029;-78
2021/12/14 04:35:55;;;;;;;4.72;1.55;;;;;;;;;;5048547;28;20052;-78
2021/12/14 04:38:27;;;;;;;5.32;1.80;;;;;;;;;;5049361;28;20093;-77
2021/12/14 04:52:20;;;;;;;8.10;2.83;;;;;;;;;;5046154;28;20029;-77
2021/12/14 04:55:08;;;;;;;10.82;3.45;;;;;;;;;;5049940;28;20166;-78
2021/12/14 04:57:43;;;;;;;9.23;4.10;;;;;;;;;;5048460;28;20471;-77
2021/12/14 05:00:32;;;;;;;7.53;2.92;;;;;;;;;;5044761;28;20049;-78
2021/12/14 05:03:01;;;;;;;12.65;4.97;;;;;;;;;;5045938;28;20032;-77
2021/12/14 05:05:32;;;;;;;6.20;3.58;;;;;;;;;;5045032;28;20033;-78
2021/12/14 05:10:40;;;;;;;8.68;3.45;;;;;;;;;;5046387;28;20468;-77
2021/12/14 05:13:07;;;;;;;7.50;3.30;;;;;;;;;;5047206;28;20642;-78
2021/12/14 05:15:36;;;;;;;7.85;3.80;;;;;;;;;;5046532;28;20493;-78
2021/12/14 05:18:02;;;;;;;13.75;5.05;;;;;;;;;;5050553;28;20527;-76
2021/12/14 05:20:27;;;;;;;39.97;8.65;;;;;;;;;;5046474;28;20036;-78
2021/12/14 05:22:53;;;;;;;24.08;7.78;;;;;;;;;;5050496;28;20391;-78
2021/12/14 05:25:25;;;;;;;16.58;5.90;;;;;;;;;;5046143;28;20029;-77
2021/12/14 05:27:57;;;;;;;12.82;5.20;;;;;;;;;;5077236;28;21096;-77
2021/12/14 05:30:33;;;;;;;14.85;5.57;;;;;;;;;;5048176;28;20111;-77
2021/12/14 05:33:14;;;;;;;13.13;5.10;;;;;;;;;;5045447;28;20108;-77
2021/12/14 05:35:41;;;;;;;9.20;4.78;;;;;;;;;;5056076;28;20157;-77
2021/12/14 05:38:26;;;;;;;10.70;4.93;;;;;;;;;;5057971;28;20028;-76
2021/12/14 05:43:22;;;;;;;13.10;5.18;;;;;;;;;;5055393;28;20029;-78
2021/12/14 05:45:52;;;;;;;10.50;4.65;;;;;;;;;;5057633;28;20090;-78
2021/12/14 05:48:29;;;;;;;20.33;8.00;;;;;;;;;;5053298;28;20043;-76
2021/12/14 05:51:01;;;;;;;19.58;7.03;;;;;;;;;;5060161;28;20025;-77
2021/12/14 05:53:30;;;;;;;24.95;6.70;;;;;;;;;;5055922;28;20041;-78
2021/12/14 05:55:57;;;;;;;19.35;6.78;;;;;;;;;;5055664;28;20063;-77
2021/12/14 05:58:24;;;;;;;16.48;7.47;;;;;;;;;;5053068;28;20036;-79
2021/12/14 06:00:57;;;;;;;21.15;6.53;;;;;;;;;;5056895;28;20089;-75
2021/12/14 06:03:32;;;;;;;23.13;7.57;;;;;;;;;;5055195;28;20571;-76
2021/12/14 06:06:00;;;;;;;22.58;8.07;;;;;;;;;;5052778;28;20092;-75
2021/12/14 06:08:30;;;;;;;16.55;7.50;;;;;;;;;;5049634;28;21351;-77
2021/12/14 06:10:56;;;;;;;20.92;7.22;;;;;;;;;;5049121;28;20439;-75
2021/12/14 06:13:39;;;;;;;28.27;9.63;;;;;;;;;;5048202;28;20056;-75
2021/12/14 06:16:05;;;;;;;18.10;6.47;;;;;;;;;;5049220;28;20029;-75
2021/12/14 06:18:31;;;;;;;13.73;5.63;;;;;;;;;;5049039;28;20024;-76
2021/12/14 06:20:56;;;;;;;12.82;5.10;;;;;;;;;;5052086;28;20033;-77
2021/12/14 06:23:26;;;;;;;11.00;4.90;;;;;;;;;;5052417;28;20025;-78
2021/12/14 06:25:52;;;;;;;12.27;4.30;;;;;;;;;;5048052;28;20028;-78
2021/12/14 06:28:23;;;;;;;22.10;9.95;;;;;;;;;;5051558;28;20033;-78
2021/12/14 06:30:48;;;;;;;16.13;6.85;;;;;;;;;;5049194;28;20029;-76
2021/12/14 06:33:14;;;;;;;16.13;6.45;;;;;;;;;;5050450;28;20124;-78
2021/12/14 06:35:47;;;;;;;16.08;6.97;;;;;;;;;;5052517;28;20479;-78
2021/12/14 06:38:29;;;;;;;17.95;7.68;;;;;;;;;;5049425;28;20530;-79
2021/12/14 06:41:18;;;;;;;15.15;7.43;;;;;;;;;;5053659;28;20111;-80
2021/12/14 06:43:48;;;;;;;22.13;8.23;;;;;;;;;;5056987;28;20470;-78
2021/12/14 06:46:20;;;;;;;21.85;8.70;;;;;;;;;;5052673;28;20411;-79
2021/12/14 06:48:53;;;;;;;20.60;8.50;;;;;;;;;;5050635;28;20035;-78
2021/12/14 06:51:24;;;;;;;17.45;7.90;;;;;;;;;;5054495;28;20031;-78
2021/12/14 06:53:56;;;;;;;66.32;22.83;;;;;;;;;;5050384;28;20029;-78
2021/12/14 06:56:26;;;;;;;61.05;21.60;;;;;;;;;;5053324;28;20073;-79
2021/12/14 06:58:58;;;;;;;17.58;7.68;;;;;;;;;;5075303;28;20029;-79
2021/12/14 07:01:30;;;;;;;23.52;8.48;;;;;;;;;;5053922;28;20029;-78
2021/12/14 07:04:05;;;;;;;41.90;11.20;;;;;;;;;;5070333;28;20028;-76
2021/12/14 07:06:37;;;;;;;18.92;7.07;;;;;;;;;;5041050;28;20032;-76
2021/12/14 07:09:05;;;;;;;17.55;6.30;;;;;;;;;;5039036;28;20104;-75
2021/12/14 07:11:31;;;;;;;13.75;6.20;;;;;;;;;;5041524;28;20025;-76
2021/12/14 07:13:57;;;;;;;15.32;6.93;;;;;;;;;;5047370;28;20465;-75
2021/12/14 07:16:30;;;;;;;18.00;6.50;;;;;;;;;;5071337;28;20405;-77
2021/12/14 07:18:59;;;;;;;28.88;10.48;;;;;;;;;;5048570;28;20954;-76
2021/12/14 07:21:38;;;;;;;28.25;10.73;;;;;;;;;;5052092;28;20381;-76
2021/12/14 07:24:35;;;;;;;19.80;8.35;;;;;;;;;;5046183;28;20024;-77
2021/12/14 07:27:19;;;;;;;19.05;7.35;;;;;;;;;;5034264;28;20044;-75
2021/12/14 07:29:46;;;;;;;15.10;6.25;;;;;;;;;;5047512;28;20289;-76
2021/12/14 07:32:34;;;;;;;15.50;7.15;;;;;;;;;;5045331;28;20031;-77
2021/12/14 07:35:16;;;;;;;24.00;9.52;;;;;;;;;;5045632;28;20493;-77
2021/12/14 07:37:42;;;;;;;25.63;10.75;;;;;;;;;;5046785;28;20102;-75
2021/12/14 07:40:09;;;;;;;28.52;12.10;;;;;;;;;;5050106;28;20032;-77
2021/12/14 07:42:35;;;;;;;27.60;11.48;;;;;;;;;;5048070;28;20115;-77
2021/12/14 07:45:01;;;;;;;25.02;11.07;;;;;;;;;;5043743;28;20168;-76
2021/12/14 07:47:26;;;;;;;25.33;11.38;;;;;;;;;;5050552;28;20048;-77
2021/12/14 07:49:55;;;;;;;38.30;15.80;;;;;;;;;;5046264;28;20043;-77
2021/12/14 07:52:37;;;;;;;49.80;21.67;;;;;;;;;;5041463;28;20368;-76
2021/12/14 07:55:10;;;;;;;51.05;20.02;;;;;;;;;;5038972;28;20401;-76
2021/12/14 07:57:37;;;;;;;34.45;16.02;;;;;;;;;;5044302;28;20021;-76
2021/12/14 08:00:15;;;;;;;39.33;15.02;;;;;;;;;;5046117;28;20032;-75
2021/12/14 08:02:48;;;;;;;32.38;14.10;;;;;;;;;;5045817;28;20060;-76
2021/12/14 08:05:15;;;;;;;25.58;11.25;;;;;;;;;;5044220;28;20029;-76
2021/12/14 08:07:47;;;;;;;26.52;11.05;;;;;;;;;;5042711;28;20071;-76
2021/12/14 08:10:32;;;;;;;27.40;11.15;;;;;;;;;;5043491;28;20875;-76
2021/12/14 08:13:13;;;;;;;31.70;10.52;;;;;;;;;;5045678;28;20064;-76
2021/12/14 08:15:53;;;;;;;35.67;11.93;;;;;;;;;;5052429;28;20028;-81
2021/12/14 08:18:21;;;;;;;28.40;11.18;;;;;;;;;;5046175;28;20051;-79
2021/12/14 08:20:57;;;;;;;23.52;9.30;;;;;;;;;;5045692;28;20853;-78
2021/12/14 08:23:25;;;;;;;19.98;8.80;;;;;;;;;;5053620;28;20055;-77
2021/12/14 08:25:55;;;;;;;30.65;12.02;;;;;;;;;;5046647;28;20400;-76
2021/12/14 08:28:21;;;;;;;;;;;;;;;;;;5048626;28;20487;-76
2021/12/14 08:31:07;;;;;;;32.78;12.80;;;;;;;;;;5047108;28;19917;-76
2021/12/14 08:33:35;;;;;;;35.83;15.18;;;;;;;;;;5042841;28;20041;-76
2021/12/14 08:36:04;;;;;;;44.42;20.23;;;;;;;;;;5047398;28;20029;-76
2021/12/14 08:38:33;;;;;;;32.05;12.18;;;;;;;;;;5049716;28;20511;-76
2021/12/14 08:41:11;;;;;;;30.75;11.77;;;;;;;;;;5046907;28;20097;-76
2021/12/14 08:43:45;;;;;;;22.10;10.00;;;;;;;;;;5043776;28;20139;-74
2021/12/14 08:46:13;;;;;;;30.55;12.20;;;;;;;;;;5043760;28;20505;-75
2021/12/14 08:48:49;;;;;;;29.85;12.43;;;;;;;;;;5046784;28;20029;-74
2021/12/14 08:51:27;;;;;;;35.20;13.10;;;;;;;;;;5047367;28;20069;-75
2021/12/14 08:54:05;;;;;;;32.75;13.43;;;;;;;;;;5039057;28;20037;-75
2021/12/14 08:56:37;;;;;;;31.50;13.82;;;;;;;;;;5043073;28;20041;-75
2021/12/14 08:59:04;;;;;;;34.78;15.00;;;;;;;;;;5046223;28;20029;-75
2021/12/14 09:01:31;;;;;;;30.98;14.20;;;;;;;;;;5045005;28;20017;-75
2021/12/14 09:04:22;;;;;;;35.22;15.48;;;;;;;;;;5045172;28;20047;-75
2021/12/14 09:06:54;;;;;;;28.63;13.40;;;;;;;;;;5037484;28;20045;-76
2021/12/14 09:09:22;;;;;;;31.20;12.30;;;;;;;;;;5045458;28;20075;-75
2021/12/14 09:11:57;;;;;;;27.40;12.02;;;;;;;;;;5052197;28;20033;-75
2021/12/14 09:14:22;;;;;;;26.85;12.30;;;;;;;;;;5046160;28;20111;-75
2021/12/14 09:16:54;;;;;;;27.27;13.25;;;;;;;;;;5046883;28;20115;-75
2021/12/14 09:19:29;;;;;;;29.70;14.13;;;;;;;;;;5046187;28;20040;-76
2021/12/14 09:21:58;;;;;;;30.88;14.30;;;;;;;;;;5048924;28;20150;-75
2021/12/14 09:24:27;;;;;;;32.28;14.80;;;;;;;;;;5049886;28;20025;-76
2021/12/14 09:26:57;;;;;;;32.90;14.60;;;;;;;;;;5048138;28;20037;-76
2021/12/14 09:29:25;;;;;;;29.83;14.07;;;;;;;;;;5056956;28;20436;-76
2021/12/14 09:31:56;;;;;;;26.40;13.68;;;;;;;;;;5051494;28;20025;-76
2021/12/14 09:34:26;;;;;;;28.75;13.48;;;;;;;;;;5060945;28;20029;-75
2021/12/14 09:36:57;;;;;;;31.73;13.40;;;;;;;;;;5052168;28;20036;-75
2021/12/14 09:39:29;;;;;;;29.42;14.20;;;;;;;;;;5055212;28;20033;-75
2021/12/14 09:41:57;;;;;;;25.80;14.02;;;;;;;;;;5055213;28;20033;-74
2021/12/14 09:44:28;;;;;;;35.50;15.40;;;;;;;;;;5050216;28;20380;-76
2021/12/14 09:46:56;;;;;;;28.63;14.60;;;;;;;;;;5048981;28;20032;-75
2021/12/14 09:49:22;;;;;;;24.65;11.95;;;;;;;;;;5048162;28;20478;-75
2021/12/14 09:51:54;;;;;;;25.25;12.98;;;;;;;;;;5051280;28;20020;-74
2021/12/14 09:54:23;;;;;;;24.27;12.20;;;;;;;;;;5045848;28;20401;-75
2021/12/14 09:56:56;;;;;;;18.92;10.98;;;;;;;;;;5041778;28;20131;-75
2021/12/14 09:59:22;;;;;;;20.95;10.73;;;;;;;;;;5044913;28;20033;-76
2021/12/14 10:01:56;;;;;;;19.40;10.48;;;;;;;;;;5049845;28;20030;-75
2021/12/14 10:04:44;;;;;;;18.13;9.55;;;;;;;;;;5051192;28;20025;-75
2021/12/14 10:07:10;;;;;;;19.33;10.00;;;;;;;;;;5046124;28;20040;-75
2021/12/14 10:09:43;;;;;;;17.17;8.60;;;;;;;;;;5051812;28;20036;-75
2021/12/14 10:12:56;;;;;;;15.90;8.32;;;;;;;;;;5045777;28;20037;-75
2021/12/14 10:15:15;;;;;;;14.38;7.13;;;;;;;;;;5041633;28;20114;-75
2021/12/14 10:17:42;;;;;;;14.25;7.30;;;;;;;;;;5046862;28;20477;-75
2021/12/14 10:20:12;;;;;;;15.88;8.07;;;;;;;;;;5050420;28;20032;-75
2021/12/14 10:22:37;;;;;;;14.30;7.95;;;;;;;;;;5061149;28;20021;-74
2021/12/14 10:25:08;;;;;;;13.63;7.68;;;;;;;;;;5053887;28;20083;-74
2021/12/14 10:27:38;;;;;;;13.00;7.78;;;;;;;;;;5046111;28;20048;-75
2021/12/14 10:30:15;;;;;;;14.07;7.05;;;;;;;;;;5052345;28;20056;-75
2021/12/14 10:32:42;;;;;;;15.27;8.73;;;;;;;;;;5061941;28;20041;-76
2021/12/14 10:35:15;;;;;;;15.02;8.10;;;;;;;;;;5041977;28;20036;-77
2021/12/14 10:38:00;;;;;;;20.20;8.77;;;;;;;;;;5044561;28;20060;-75
2021/12/14 10:43:17;;;;;;;18.75;9.13;;;;;;;;;;5048494;28;20098;-76
2021/12/14 10:45:51;;;;;;;19.50;9.00;;;;;;;;;;5041765;28;20028;-76
2021/12/14 10:48:20;;;;;;;17.48;8.65;;;;;;;;;;5059745;28;20038;-76
2021/12/14 10:50:48;;;;;;;15.75;8.65;;;;;;;;;;5047264;28;20056;-75
2021/12/14 10:53:16;;;;;;;16.90;8.88;;;;;;;;;;5048473;28;20025;-75
2021/12/14 10:55:51;;;;;;;15.75;9.10;;;;;;;;;;5049060;28;20028;-75
2021/12/14 10:58:19;;;;;;;14.15;8.70;;;;;;;;;;5041781;28;20033;-75
2021/12/14 11:00:53;;;;;;;18.17;9.23;;;;;;;;;;5044807;28;20366;-75
2021/12/14 11:03:23;;;;;;;15.32;9.05;;;;;;;;;;5049645;28;20037;-75
2021/12/14 11:05:53;;;;;;;18.08;9.65;;;;;;;;;;5044806;28;20045;-76
2021/12/14 11:08:46;;;;;;;19.55;11.00;;;;;;;;;;5043141;28;20033;-75
2021/12/14 11:11:29;;;;;;;21.58;11.65;;;;;;;;;;5042477;28;20028;-76
2021/12/14 11:14:00;;;;;;;20.48;11.02;;;;;;;;;;5043447;28;20039;-76
2021/12/14 11:19:42;;;;;;;24.42;12.32;;;;;;;;;;5048985;28;20514;-76
2021/12/14 11:22:16;;;;;;;24.08;12.15;;;;;;;;;;5045921;28;20460;-76
2021/12/14 11:24:49;;;;;;;24.63;12.52;;;;;;;;;;5043511;28;20531;-76
2021/12/14 11:27:37;;;;;;;33.00;16.08;;;;;;;;;;5045454;28;20025;-75
2021/12/14 11:30:28;;;;;;;25.30;13.43;;;;;;;;;;5048387;28;20087;-76
2021/12/14 11:33:05;;;;;;;24.67;13.13;;;;;;;;;;5049160;28;20391;-76
2021/12/14 11:35:33;;;;;;;17.85;10.52;;;;;;;;;;5042326;28;20115;-75
2021/12/14 11:38:07;;;;;;;24.05;11.43;;;;;;;;;;5047319;28;20462;-76
2021/12/14 11:40:35;;;;;;;22.42;11.82;;;;;;;;;;5044345;28;20029;-76
2021/12/14 11:43:23;;;;;;;20.05;11.15;;;;;;;;;;5044532;28;20021;-77
2021/12/14 11:45:49;;;;;;;20.20;11.30;;;;;;;;;;5042203;28;20078;-76
2021/12/14 11:48:27;;;;;;;20.27;10.85;;;;;;;;;;5048690;28;20666;-77
2021/12/14 11:50:52;;;;;;;22.35;12.13;;;;;;;;;;5041540;28;20114;-76
2021/12/14 11:53:21;;;;;;;21.27;11.63;;;;;;;;;;5045780;28;20055;-76
2021/12/14 11:55:54;;;;;;;18.70;10.80;;;;;;;;;;5043037;28;20067;-76
2021/12/14 11:58:28;;;;;;;17.45;10.40;;;;;;;;;;5042647;28;20033;-76
2021/12/14 12:00:54;;;;;;;17.65;10.13;;;;;;;;;;5039211;28;20030;-76
2021/12/14 12:03:31;;;;;;;19.27;11.23;;;;;;;;;;5049467;28;20025;-76
2021/12/14 12:06:13;;;;;;;18.35;10.27;;;;;;;;;;5045186;28;20082;-76
2021/12/14 12:11:37;;;;;;;16.17;9.98;;;;;;;;;;5041630;28;20039;-75
2021/12/14 12:14:29;;;;;;;16.70;9.70;;;;;;;;;;5044524;28;20119;-75
2021/12/14 12:17:16;;;;;;;14.15;9.20;;;;;;;;;;5045047;28;20066;-76
2021/12/14 12:20:18;;;;;;;21.13;11.20;;;;;;;;;;5048193;28;20024;-75
2021/12/14 12:23:03;;;;;;;23.85;12.70;;;;;;;;;;5048881;28;20087;-75
2021/12/14 12:26:08;;;;;;;23.77;13.40;;;;;;;;;;5048763;28;20395;-75
2021/12/14 12:28:46;;;;;;;25.20;13.25;;;;;;;;;;5043653;28;20120;-75
2021/12/14 12:31:19;;;;;;;20.80;12.25;;;;;;;;;;5042781;28;20167;-75
2021/12/14 12:33:48;;;;;;;19.17;12.10;;;;;;;;;;5044606;28;20039;-75
2021/12/14 12:36:23;;;;;;;20.40;12.25;;;;;;;;;;5044326;28;20029;-76
2021/12/14 12:39:05;;;;;;;21.83;12.98;;;;;;;;;;5046659;28;20025;-74
2021/12/14 12:41:47;;;;;;;20.05;11.57;;;;;;;;;;5048410;28;20128;-75
2021/12/14 12:44:26;;;;;;;17.98;11.25;;;;;;;;;;5048156;28;20047;-75
2021/12/14 12:46:58;;;;;;;19.30;10.68;;;;;;;;;;5065212;28;20028;-75
2021/12/14 12:49:31;;;;;;;18.15;10.00;;;;;;;;;;5056759;28;20031;-76
2021/12/14 12:52:12;;;;;;;23.20;9.48;;;;;;;;;;5060142;28;20028;-75
2021/12/14 12:54:56;;;;;;;21.42;10.43;;;;;;;;;;5060661;28;20081;-75
2021/12/14 12:57:33;;;;;;;16.35;10.18;;;;;;;;;;5062324;28;20040;-75
2021/12/14 13:00:17;;;;;;;13.85;8.98;;;;;;;;;;5062306;28;20036;-75
2021/12/14 13:02:45;;;;;;;14.90;9.60;;;;;;;;;;5058438;28;20487;-75
2021/12/14 13:05:23;;;;;;;15.27;9.30;;;;;;;;;;5061169;28;20029;-77
2021/12/14 13:07:48;;;;;;;17.58;8.85;;;;;;;;;;5051264;28;20032;-77
2021/12/14 13:10:27;;;;;;;11.93;7.95;;;;;;;;;;5052665;28;20396;-77
2021/12/14 13:13:10;;;;;;;15.13;8.30;;;;;;;;;;5050011;28;20113;-77
2021/12/14 13:15:50;;;;;;;12.32;7.55;;;;;;;;;;5046489;28;20102;-77
2021/12/14 13:18:39;;;;;;;13.27;7.57;;;;;;;;;;5050593;28;20029;-79
2021/12/14 13:21:10;;;;;;;14.65;7.85;;;;;;;;;;5071244;28;20411;-78
2021/12/14 13:23:44;;;;;;;11.57;7.28;;;;;;;;;;5046601;28;20039;-76
2021/12/14 13:26:23;;;;;;;10.90;6.75;;;;;;;;;;5046842;28;20025;-75
2021/12/14 13:28:50;;;;;;;10.47;7.73;;;;;;;;;;5056610;28;20037;-73
2021/12/14 13:31:41;;;;;;;14.02;7.30;;;;;;;;;;5061806;28;20291;-75
2021/12/14 13:34:11;;;;;;;12.05;7.95;;;;;;;;;;5027548;28;20057;-76
2021/12/14 13:36:37;;;;;;;12.88;8.15;;;;;;;;;;5052828;28;20111;-76
2021/12/14 13:39:06;;;;;;;15.90;8.65;;;;;;;;;;5045365;28;20515;-75
2021/12/14 13:42:09;;;;;;;12.60;8.10;;;;;;;;;;5047108;28;20036;-76
2021/12/14 13:44:55;;;;;;;12.20;8.20;;;;;;;;;;5037847;28;20321;-76
2021/12/14 13:47:25;;;;;;;14.88;8.27;;;;;;;;;;5049611;28;20068;-75
2021/12/14 13:49:55;;;;;;;18.90;9.98;;;;;;;;;;5045505;28;20040;-76
2021/12/14 13:52:21;;;;;;;21.52;10.48;;;;;;;;;;5049667;28;20112;-76
2021/12/14 13:55:10;;;;;;;19.80;10.27;;;;;;;;;;5046738;28;20186;-76
2021/12/14 13:57:39;;;;;;;22.40;10.02;;;;;;;;;;5053626;28;20032;-77
2021/12/14 14:00:07;;;;;;;13.50;8.05;;;;;;;;;;5063393;28;20396;-76
2021/12/14 14:02:33;;;;;;;15.07;8.10;;;;;;;;;;5046280;28;20116;-75
2021/12/14 14:04:58;;;;;;;14.65;8.20;;;;;;;;;;5048766;28;20105;-76
2021/12/14 14:07:24;;;;;;;23.70;10.77;;;;;;;;;;5048134;28;20104;-75
2021/12/14 14:09:54;;;;;;;24.58;12.18;;;;;;;;;;5047960;28;20061;-76
2021/12/14 14:12:23;;;;;;;16.25;8.70;;;;;;;;;;5042726;28;20618;-75
2021/12/14 14:14:51;;;;;;;14.50;8.95;;;;;;;;;;5045105;28;20094;-76
2021/12/14 14:17:25;;;;;;;13.45;8.48;;;;;;;;;;5069825;28;20408;-76
2021/12/14 14:19:57;;;;;;;12.10;7.63;;;;;;;;;;5055276;28;20039;-75
2021/12/14 14:22:30;;;;;;;12.57;7.38;;;;;;;;;;5047117;28;20036;-76
2021/12/14 14:25:10;;;;;;;15.60;9.07;;;;;;;;;;5045748;28;20029;-77
2021/12/14 14:27:43;;;;;;;16.35;9.73;;;;;;;;;;5047023;28;20424;-77
2021/12/14 14:30:42;;;;;;;15.52;9.38;;;;;;;;;;5045767;28;20086;-74
2021/12/14 14:33:25;;;;;;;14.75;8.93;;;;;;;;;;5036397;28;20037;-74
2021/12/14 14:36:04;;;;;;;15.95;9.63;;;;;;;;;;5043496;28;20034;-76
2021/12/14 14:38:30;;;;;;;;;;;;;;;;;;5048425;28;20056;-76
2021/12/14 14:40:59;;;;;;;15.73;9.75;;;;;;;;;;5047914;28;20368;-76
2021/12/14 14:44:09;;;;;;;18.35;11.00;;;;;;;;;;5048634;28;20157;-74
2021/12/14 14:46:40;;;;;;;;;;;;;;;;;;5041213;28;20032;-74
2021/12/14 14:49:13;;;;;;;18.20;9.50;;;;;;;;;;5044767;28;19928;-76
2021/12/14 14:51:56;;;;;;;18.92;10.52;;;;;;;;;;5047682;28;20082;-76
2021/12/14 14:54:30;;;;;;;20.77;10.80;;;;;;;;;;5049958;28;20396;-76
2021/12/14 14:56:57;;;;;;;21.00;10.88;;;;;;;;;;5046429;28;20404;-74
2021/12/14 14:59:25;;;;;;;17.02;9.93;;;;;;;;;;5048638;28;20025;-74
2021/12/14 15:01:51;;;;;;;22.38;11.30;;;;;;;;;;5045411;28;20485;-75
2021/12/14 15:04:16;;;;;;;23.58;11.70;;;;;;;;;;5045412;28;20035;-75
2021/12/14 15:06:44;;;;;;;23.85;10.77;;;;;;;;;;5043246;28;20064;-75
2021/12/14 15:09:17;;;;;;;25.10;11.85;;;;;;;;;;5045109;28;20115;-75
2021/12/14 15:11:56;;;;;;;24.42;11.90;;;;;;;;;;5044840;28;20053;-75
2021/12/14 15:14:36;;;;;;;28.58;13.05;;;;;;;;;;5062563;28;20038;-75
2021/12/14 15:17:32;;;;;;;34.13;15.60;;;;;;;;;;5049411;28;20024;-76
2021/12/14 15:19:57;;;;;;;43.42;17.92;;;;;;;;;;5047596;28;20029;-76
2021/12/14 15:22:31;;;;;;;34.25;15.50;;;;;;;;;;5043968;28;20036;-78
2021/12/14 15:25:05;;;;;;;30.25;15.48;;;;;;;;;;5043066;28;20135;-76
2021/12/14 15:27:44;;;;;;;24.60;13.30;;;;;;;;;;5043931;28;20060;-76
2021/12/14 15:30:20;;;;;;;23.48;12.80;;;;;;;;;;5048153;28;20436;-76
2021/12/14 15:32:58;;;;;;;23.23;12.20;;;;;;;;;;5041979;28;20036;-75
2021/12/14 15:35:26;;;;;;;21.17;12.82;;;;;;;;;;5044419;28;20039;-75
2021/12/14 15:38:03;;;;;;;21.10;11.77;;;;;;;;;;5047373;28;20063;-77
2021/12/14 15:40:43;;;;;;;22.73;12.05;;;;;;;;;;5047435;28;20033;-77
2021/12/14 15:43:25;;;;;;;24.70;12.82;;;;;;;;;;5045469;28;20100;-76
2021/12/14 15:45:56;;;;;;;45.80;22.17;;;;;;;;;;5041888;28;20060;-74